createdAt,value
2018-12-12T00:01:43.510Z,1.93
2018-12-12T00:04:11.916Z,1.60
2018-12-12T00:06:40.374Z,2.00
2018-12-12T00:09:08.776Z,1.90
2018-12-12T00:11:37.160Z,1.87
2018-12-12T00:14:05.590Z,1.70
2018-12-12T00:16:33.970Z,1.60
2018-12-12T00:19:02.668Z,2.00
2018-12-12T00:21:31.093Z,1.57
2018-12-12T00:23:59.584Z,2.00
2018-12-12T00:26:28.059Z,1.50
2018-12-12T00:28:56.485Z,1.37
2018-12-12T00:31:24.885Z,1.70
2018-12-12T00:33:53.281Z,1.40
2018-12-12T00:36:21.769Z,1.40
2018-12-12T00:38:50.520Z,1.50
2018-12-12T00:41:18.910Z,1.60
2018-12-12T00:43:47.380Z,1.40
2018-12-12T00:46:15.762Z,1.30
2018-12-12T00:48:44.776Z,1.40
2018-12-12T00:51:13.181Z,1.43
2018-12-12T00:53:41.591Z,1.50
2018-12-12T00:56:10.049Z,1.37
2018-12-12T00:58:38.480Z,1.70
2018-12-12T01:01:07.005Z,1.40
2018-12-12T01:03:35.389Z,1.33
2018-12-12T01:06:03.816Z,1.10
2018-12-12T01:08:32.210Z,1.30
2018-12-12T01:11:05.802Z,1.23
2018-12-12T01:13:34.204Z,1.30
2018-12-12T01:16:02.712Z,1.43
2018-12-12T01:18:31.329Z,0.90
2018-12-12T01:21:00.168Z,1.10
2018-12-12T01:23:28.562Z,1.00
2018-12-12T01:25:56.969Z,1.40
2018-12-12T01:28:25.412Z,1.03
2018-12-12T01:30:53.801Z,1.07
2018-12-12T01:33:22.212Z,0.90
2018-12-12T01:35:50.665Z,1.00
2018-12-12T01:38:19.068Z,1.00
2018-12-12T01:40:47.511Z,1.43
2018-12-12T01:43:15.897Z,0.93
2018-12-12T01:45:44.271Z,1.20
2018-12-12T01:48:12.669Z,1.03
2018-12-12T01:50:41.112Z,0.90
2018-12-12T01:53:09.480Z,1.20
2018-12-12T01:55:37.909Z,1.03
2018-12-12T01:58:06.345Z,1.10
2018-12-12T02:00:34.848Z,1.13
2018-12-12T02:03:03.372Z,1.00
2018-12-12T02:05:31.756Z,1.50
2018-12-12T02:08:00.186Z,1.30
2018-12-12T02:10:28.605Z,1.37
2018-12-12T02:13:08.516Z,1.60
2018-12-12T02:15:37.321Z,1.43
2018-12-12T02:18:05.702Z,1.40
2018-12-12T02:20:34.280Z,1.47
2018-12-12T02:23:03.445Z,1.47
2018-12-12T02:25:31.924Z,1.33
2018-12-12T02:28:00.314Z,1.13
2018-12-12T02:30:28.727Z,1.13
2018-12-12T02:32:57.114Z,1.57
2018-12-12T02:35:25.490Z,1.10
2018-12-12T02:37:53.981Z,1.40
2018-12-12T02:40:22.359Z,1.43
2018-12-12T02:42:50.744Z,1.70
2018-12-12T02:45:19.220Z,1.10
2018-12-12T02:47:47.728Z,1.40
2018-12-12T02:50:16.153Z,1.23
2018-12-12T02:52:44.541Z,1.57
2018-12-12T02:55:13.085Z,1.60
2018-12-12T02:57:41.460Z,1.60
2018-12-12T03:00:10.281Z,1.20
2018-12-12T03:02:39.173Z,1.37
2018-12-12T03:05:07.808Z,1.40
2018-12-12T03:07:36.205Z,1.27
2018-12-12T03:10:04.898Z,1.40
2018-12-12T03:12:33.361Z,1.40
2018-12-12T03:15:01.788Z,1.50
2018-12-12T03:17:30.158Z,1.57
2018-12-12T03:19:58.634Z,1.40
2018-12-12T03:22:27.136Z,1.50
2018-12-12T03:24:56.041Z,1.40
2018-12-12T03:27:24.426Z,1.17
2018-12-12T03:29:52.836Z,1.17
2018-12-12T03:32:21.222Z,1.50
2018-12-12T03:34:49.604Z,1.40
2018-12-12T03:37:18.027Z,1.40
2018-12-12T03:39:46.431Z,1.20
2018-12-12T03:42:15.394Z,1.67
2018-12-12T03:44:43.874Z,1.10
2018-12-12T03:47:12.265Z,1.20
2018-12-12T03:49:40.769Z,1.20
2018-12-12T03:52:09.546Z,1.40
2018-12-12T03:54:37.915Z,1.40
2018-12-12T03:57:06.292Z,1.40
2018-12-12T03:59:34.708Z,1.33
2018-12-12T04:02:03.198Z,1.30
2018-12-12T04:04:31.569Z,1.40
2018-12-12T04:07:00.008Z,1.43
2018-12-12T04:09:28.474Z,1.10
2018-12-12T04:11:56.886Z,1.40
2018-12-12T04:14:31.847Z,1.30
2018-12-12T04:17:00.358Z,1.10
2018-12-12T04:19:28.888Z,1.30
2018-12-12T04:21:57.521Z,1.20
2018-12-12T04:24:27.660Z,1.37
2018-12-12T04:26:59.140Z,1.40
2018-12-12T04:29:27.553Z,1.30
2018-12-12T04:31:55.917Z,1.30
2018-12-12T04:34:24.326Z,1.07
2018-12-12T04:36:52.930Z,1.30
2018-12-12T04:39:21.298Z,1.33
2018-12-12T04:41:49.975Z,1.60
2018-12-12T04:44:18.461Z,1.50
2018-12-12T04:46:46.856Z,1.23
2018-12-12T04:49:21.647Z,1.27
2018-12-12T04:51:50.045Z,1.63
2018-12-12T04:54:18.481Z,0.97
2018-12-12T04:56:46.907Z,1.40
2018-12-12T04:59:15.986Z,1.40
2018-12-12T05:01:44.416Z,2.00
2018-12-12T05:04:12.825Z,1.50
2018-12-12T05:06:41.408Z,1.50
2018-12-12T05:09:09.794Z,1.60
2018-12-12T05:11:38.217Z,1.10
2018-12-12T05:14:06.624Z,1.80
2018-12-12T05:16:35.000Z,1.43
2018-12-12T05:19:03.453Z,1.20
2018-12-12T05:21:31.880Z,1.70
2018-12-12T05:24:00.334Z,1.57
2018-12-12T05:26:28.881Z,1.70
2018-12-12T05:28:57.420Z,1.80
2018-12-12T05:31:25.903Z,1.50
2018-12-12T05:33:54.392Z,1.70
2018-12-12T05:36:22.929Z,1.63
2018-12-12T05:38:51.302Z,1.40
2018-12-12T05:41:19.882Z,1.80
2018-12-12T05:43:48.383Z,1.73
2018-12-12T05:46:17.033Z,1.70
2018-12-12T05:48:45.451Z,1.80
2018-12-12T05:51:13.824Z,2.00
2018-12-12T05:53:42.218Z,2.00
2018-12-12T05:56:14.055Z,2.10
2018-12-12T05:58:41.156Z,1.90
2018-12-12T06:01:09.592Z,1.90
2018-12-12T06:03:38.281Z,1.93
2018-12-12T06:06:06.772Z,1.80
2018-12-12T06:08:35.182Z,2.40
2018-12-12T06:11:03.668Z,2.30
2018-12-12T06:13:32.182Z,2.17
2018-12-12T06:16:00.569Z,2.20
2018-12-12T06:18:29.022Z,2.50
2018-12-12T06:20:57.417Z,2.30
2018-12-12T06:23:25.817Z,2.30
2018-12-12T06:25:54.252Z,2.20
2018-12-12T06:28:23.061Z,2.10
2018-12-12T06:30:51.936Z,2.17
2018-12-12T06:33:20.517Z,2.23
2018-12-12T06:35:48.933Z,2.03
2018-12-12T06:38:17.328Z,2.37
2018-12-12T06:40:45.743Z,2.80
2018-12-12T06:43:14.257Z,2.57
2018-12-12T06:45:42.656Z,2.57
2018-12-12T06:48:11.173Z,2.40
2018-12-12T06:50:40.053Z,2.73
2018-12-12T06:53:08.460Z,2.67
2018-12-12T06:55:36.898Z,2.90
2018-12-12T06:58:05.503Z,2.87
2018-12-12T07:00:34.515Z,2.63
2018-12-12T07:03:02.955Z,3.07
2018-12-12T07:05:31.370Z,3.13
2018-12-12T07:07:59.781Z,3.13
2018-12-12T07:10:28.205Z,2.90
2018-12-12T07:12:56.649Z,3.00
2018-12-12T07:15:25.061Z,3.30
2018-12-12T07:17:53.560Z,3.30
2018-12-12T07:20:21.979Z,3.50
2018-12-12T07:22:50.400Z,3.40
2018-12-12T07:25:18.939Z,3.13
2018-12-12T07:27:47.417Z,2.90
2018-12-12T07:30:16.207Z,3.27
2018-12-12T07:32:44.893Z,3.67
2018-12-12T07:35:13.392Z,3.17
2018-12-12T07:37:42.020Z,3.43
2018-12-12T07:40:10.917Z,3.50
2018-12-12T07:42:39.995Z,3.60
2018-12-12T07:45:08.588Z,3.10
2018-12-12T07:47:36.984Z,3.50
2018-12-12T07:50:06.249Z,3.40
2018-12-12T07:52:34.683Z,3.40
2018-12-12T07:55:03.262Z,3.23
2018-12-12T07:57:31.645Z,3.60
2018-12-12T08:00:00.072Z,3.37
2018-12-12T08:02:28.501Z,3.27
2018-12-12T08:04:56.913Z,3.23
2018-12-12T08:07:25.359Z,2.87
2018-12-12T08:09:53.835Z,3.13
2018-12-12T08:12:22.221Z,3.23
2018-12-12T08:14:50.597Z,3.03
2018-12-12T08:17:19.136Z,2.80
2018-12-12T08:19:47.525Z,3.47
2018-12-12T08:22:15.901Z,3.27
2018-12-12T08:24:44.328Z,3.10
2018-12-12T08:27:12.886Z,3.50
2018-12-12T08:29:41.333Z,3.73
2018-12-12T08:32:09.944Z,3.13
2018-12-12T08:34:38.533Z,3.03
2018-12-12T08:37:07.019Z,3.20
2018-12-12T08:39:35.483Z,3.83
2018-12-12T08:42:03.945Z,3.03
2018-12-12T08:44:32.468Z,2.97
2018-12-12T08:47:00.880Z,3.83
2018-12-12T08:49:29.277Z,2.80
2018-12-12T08:51:57.677Z,3.30
2018-12-12T08:54:26.256Z,3.20
2018-12-12T08:56:55.076Z,3.07
2018-12-12T08:59:23.460Z,3.23
2018-12-12T09:01:52.037Z,3.07
2018-12-12T09:04:20.546Z,3.13
2018-12-12T09:06:48.936Z,3.10
2018-12-12T09:09:17.340Z,3.33
2018-12-12T09:11:45.735Z,3.00
2018-12-12T09:14:14.310Z,3.20
2018-12-12T09:16:42.728Z,3.13
2018-12-12T09:19:11.133Z,3.47
2018-12-12T09:21:39.801Z,2.90
2018-12-12T09:24:08.247Z,2.97
2018-12-12T09:26:36.785Z,3.20
2018-12-12T09:29:05.175Z,3.20
2018-12-12T09:31:33.582Z,3.40
2018-12-12T09:34:02.837Z,3.47
2018-12-12T09:36:31.617Z,2.90
2018-12-12T09:39:00.017Z,3.03
2018-12-12T09:41:28.434Z,3.03
2018-12-12T09:43:56.997Z,3.40
2018-12-12T09:46:25.427Z,2.97
2018-12-12T09:48:54.155Z,2.93
2018-12-12T09:51:22.525Z,3.10
2018-12-12T09:53:50.976Z,3.13
2018-12-12T09:56:19.358Z,3.23
2018-12-12T09:58:47.759Z,3.00
2018-12-12T10:01:16.232Z,3.13
2018-12-12T10:03:44.741Z,2.87
2018-12-12T10:06:13.160Z,2.90
2018-12-12T10:08:41.730Z,3.10
2018-12-12T10:11:10.107Z,3.27
2018-12-12T10:13:38.672Z,3.23
2018-12-12T10:16:07.145Z,3.30
2018-12-12T10:18:35.549Z,2.90
2018-12-12T10:21:03.974Z,3.00
2018-12-12T10:23:32.611Z,2.57
2018-12-12T10:26:01.094Z,2.83
2018-12-12T10:28:29.486Z,2.50
2018-12-12T10:30:58.019Z,3.07
2018-12-12T10:33:26.428Z,2.73
2018-12-12T10:35:55.273Z,2.57
2018-12-12T10:38:24.139Z,2.97
2018-12-12T10:40:52.657Z,2.20
2018-12-12T10:43:21.041Z,2.40
2018-12-12T10:45:49.488Z,2.60
2018-12-12T10:48:17.888Z,2.63
2018-12-12T10:50:46.553Z,2.50
2018-12-12T10:53:15.039Z,2.33
2018-12-12T10:55:43.472Z,3.80
2018-12-12T10:58:12.012Z,2.43
2018-12-12T11:00:42.433Z,2.43
2018-12-12T11:03:16.602Z,2.90
2018-12-12T11:05:45.176Z,2.60
2018-12-12T11:08:13.767Z,2.70
2018-12-12T11:10:42.561Z,2.90
2018-12-12T11:13:10.975Z,2.70
2018-12-12T11:15:39.357Z,2.80
2018-12-12T11:18:08.301Z,2.33
2018-12-12T11:20:37.013Z,2.50
2018-12-12T11:23:05.630Z,2.73
2018-12-12T11:25:34.306Z,2.50
2018-12-12T11:28:03.255Z,3.00
2018-12-12T11:30:31.665Z,2.60
2018-12-12T11:33:00.127Z,2.57
2018-12-12T11:35:28.698Z,2.87
2018-12-12T11:37:57.198Z,3.00
2018-12-12T11:40:25.772Z,2.73
2018-12-12T11:42:54.200Z,3.20
2018-12-12T11:45:22.612Z,3.10
2018-12-12T11:47:51.869Z,3.20
2018-12-12T11:50:20.327Z,3.70
2018-12-12T11:52:49.249Z,2.47
2018-12-12T11:55:17.820Z,3.00
2018-12-12T11:57:46.308Z,2.67
2018-12-12T12:00:14.711Z,2.80
2018-12-12T12:02:43.250Z,3.00
2018-12-12T12:05:11.672Z,2.77
2018-12-12T12:07:40.049Z,3.20
2018-12-12T12:10:10.419Z,2.97
2018-12-12T12:12:38.844Z,3.37
2018-12-12T12:15:07.997Z,3.13
2018-12-12T12:17:36.385Z,3.10
2018-12-12T12:20:05.441Z,3.17
2018-12-12T12:22:33.926Z,3.33
2018-12-12T12:25:02.432Z,3.17
2018-12-12T12:27:30.864Z,2.80
2018-12-12T12:29:59.256Z,2.93
2018-12-12T12:32:27.632Z,3.03
2018-12-12T12:34:56.086Z,3.47
2018-12-12T12:37:24.567Z,3.10
2018-12-12T12:39:53.524Z,3.40
2018-12-12T12:42:22.259Z,3.53
2018-12-12T12:44:51.076Z,3.17
2018-12-12T12:47:19.544Z,3.10
2018-12-12T12:49:47.954Z,3.33
2018-12-12T12:52:16.337Z,3.47
2018-12-12T12:54:44.719Z,3.70
2018-12-12T12:57:13.149Z,4.07
2018-12-12T12:59:41.527Z,3.77
2018-12-12T13:02:09.956Z,4.07
2018-12-12T13:04:38.512Z,3.67
2018-12-12T13:07:06.906Z,4.27
2018-12-12T13:09:35.359Z,4.33
2018-12-12T13:12:03.895Z,3.90
2018-12-12T13:14:32.441Z,4.37
2018-12-12T13:17:00.934Z,4.27
2018-12-12T13:19:30.085Z,4.30
2018-12-12T13:21:58.528Z,4.27
2018-12-12T13:24:27.169Z,4.27
2018-12-12T13:26:55.570Z,4.13
2018-12-12T13:29:24.446Z,4.20
2018-12-12T13:31:52.825Z,4.03
2018-12-12T13:34:21.256Z,4.93
2018-12-12T13:36:49.667Z,4.10
2018-12-12T13:39:18.088Z,4.47
2018-12-12T13:41:46.651Z,4.73
2018-12-12T13:44:15.158Z,4.50
2018-12-12T13:46:44.102Z,4.43
2018-12-12T13:49:12.862Z,5.20
2018-12-12T13:51:41.293Z,4.90
2018-12-12T13:54:09.682Z,6.00
2018-12-12T13:56:38.715Z,5.33
2018-12-12T13:59:07.234Z,4.97
2018-12-12T14:01:35.627Z,4.83
2018-12-12T14:04:04.301Z,4.90
2018-12-12T14:06:32.701Z,6.50
2018-12-12T14:09:01.142Z,5.37
2018-12-12T14:11:29.803Z,5.30
2018-12-12T14:13:58.275Z,5.77
2018-12-12T14:16:26.681Z,5.33
2018-12-12T14:18:55.369Z,6.30
2018-12-12T14:21:23.770Z,6.50
2018-12-12T14:23:52.152Z,6.13
2018-12-12T14:26:20.598Z,5.93
2018-12-12T14:28:48.974Z,5.30
2018-12-12T14:31:17.367Z,6.10
2018-12-12T14:33:45.772Z,6.00
2018-12-12T14:36:14.165Z,5.60
2018-12-12T14:38:42.563Z,5.77
2018-12-12T14:41:10.989Z,5.20
2018-12-12T14:43:39.553Z,5.50
2018-12-12T14:46:08.209Z,5.80
2018-12-12T14:48:36.678Z,5.93
2018-12-12T14:51:05.069Z,5.97
2018-12-12T14:53:33.486Z,5.87
2018-12-12T14:56:01.901Z,5.10
2018-12-12T14:58:30.523Z,5.50
2018-12-12T15:00:58.941Z,5.63
2018-12-12T15:03:27.412Z,6.00
2018-12-12T15:05:55.808Z,6.10
2018-12-12T15:08:24.191Z,4.60
2018-12-12T15:10:52.601Z,5.13
2018-12-12T15:13:20.977Z,5.63
2018-12-12T15:15:49.454Z,4.90
2018-12-12T15:18:18.407Z,5.53
2018-12-12T15:20:46.963Z,6.33
2018-12-12T15:23:15.361Z,5.60
2018-12-12T15:25:43.826Z,6.53
2018-12-12T15:28:12.215Z,5.23
2018-12-12T15:30:41.134Z,5.50
2018-12-12T15:33:09.984Z,5.20
2018-12-12T15:35:38.379Z,5.07
2018-12-12T15:38:06.897Z,5.20
2018-12-12T15:40:35.321Z,5.50
2018-12-12T15:43:03.717Z,4.83
2018-12-12T15:45:32.366Z,5.30
2018-12-12T15:48:00.924Z,5.23
2018-12-12T15:50:29.293Z,5.43
2018-12-12T15:52:57.690Z,5.47
2018-12-12T15:55:26.174Z,5.17
2018-12-12T15:57:54.570Z,4.83
2018-12-12T16:00:25.080Z,4.80
2018-12-12T16:02:53.570Z,4.63
2018-12-12T16:05:21.996Z,4.80
2018-12-12T16:07:50.397Z,5.03
2018-12-12T16:10:18.863Z,4.67
2018-12-12T16:12:47.251Z,4.93
2018-12-12T16:15:16.264Z,5.10
2018-12-12T16:17:44.756Z,4.53
2018-12-12T16:20:13.132Z,4.67
2018-12-12T16:22:41.559Z,4.80
2018-12-12T16:25:10.136Z,5.30
2018-12-12T16:27:38.529Z,4.83
2018-12-12T16:30:07.663Z,4.63
2018-12-12T16:32:36.219Z,5.00
2018-12-12T16:35:04.961Z,4.87
2018-12-12T16:37:34.033Z,4.63
2018-12-12T16:40:02.994Z,3.87
2018-12-12T16:42:31.385Z,3.97
2018-12-12T16:44:59.807Z,4.27
2018-12-12T16:47:28.204Z,4.40
2018-12-12T16:49:56.748Z,4.00
2018-12-12T16:52:25.427Z,4.33
2018-12-12T16:54:53.923Z,4.40
2018-12-12T16:57:22.304Z,3.83
2018-12-12T16:59:50.703Z,4.40
2018-12-12T17:02:19.185Z,3.70
2018-12-12T17:04:47.628Z,3.87
2018-12-12T17:07:16.038Z,3.73
2018-12-12T17:09:44.636Z,4.13
2018-12-12T17:12:12.996Z,4.10
2018-12-12T17:14:41.444Z,3.57
2018-12-12T17:17:10.051Z,3.90
2018-12-12T17:19:38.444Z,3.57
2018-12-12T17:22:06.853Z,3.87
2018-12-12T17:24:35.332Z,4.07
2018-12-12T17:27:03.728Z,3.40
2018-12-12T17:29:32.126Z,3.50
2018-12-12T17:32:00.565Z,3.47
2018-12-12T17:34:28.964Z,3.80
2018-12-12T17:36:57.386Z,3.33
2018-12-12T17:39:25.836Z,3.63
2018-12-12T17:41:54.236Z,3.73
2018-12-12T17:44:22.646Z,3.33
2018-12-12T17:46:51.077Z,4.00
2018-12-12T17:49:19.526Z,2.93
2018-12-12T17:51:48.385Z,3.13
2018-12-12T17:54:16.811Z,3.67
2018-12-12T17:56:45.204Z,2.90
2018-12-12T17:59:13.606Z,3.07
2018-12-12T18:01:42.117Z,2.77
2018-12-12T18:04:10.518Z,3.20
2018-12-12T18:06:38.901Z,2.90
2018-12-12T18:09:09.071Z,2.93
2018-12-12T18:11:37.680Z,2.60
2018-12-12T18:14:06.193Z,2.70
2018-12-12T18:16:34.598Z,2.43
2018-12-12T18:19:03.461Z,2.40
2018-12-12T18:21:31.875Z,2.50
2018-12-12T18:24:00.309Z,2.53
2018-12-12T18:26:28.690Z,2.50
2018-12-12T18:28:57.106Z,2.40
2018-12-12T18:31:25.810Z,2.03
2018-12-12T18:33:54.414Z,2.97
2018-12-12T18:36:22.809Z,2.17
2018-12-12T18:38:51.328Z,2.20
2018-12-12T18:41:19.721Z,2.07
2018-12-12T18:43:48.116Z,2.17
2018-12-12T18:46:16.715Z,1.93
2018-12-12T18:48:45.137Z,2.43
2018-12-12T18:51:13.554Z,1.97
2018-12-12T18:53:43.220Z,2.30
2018-12-12T18:56:11.726Z,3.50
2018-12-12T18:58:40.723Z,2.13
2018-12-12T19:01:09.257Z,2.27
2018-12-12T19:03:39.736Z,2.30
2018-12-12T19:06:08.135Z,2.70
2018-12-12T19:08:36.810Z,2.30
2018-12-12T19:11:05.273Z,2.20
2018-12-12T19:13:33.664Z,1.97
2018-12-12T19:16:02.051Z,2.27
2018-12-12T19:18:30.460Z,2.37
2018-12-12T19:21:00.261Z,2.97
2018-12-12T19:23:29.319Z,2.87
2018-12-12T19:25:57.777Z,2.07
2018-12-12T19:28:26.266Z,2.30
2018-12-12T19:30:54.754Z,2.47
2018-12-12T19:33:23.193Z,2.03
2018-12-12T19:35:51.654Z,2.40
2018-12-12T19:38:20.200Z,2.43
2018-12-12T19:40:48.719Z,2.60
2018-12-12T19:43:17.134Z,2.43
2018-12-12T19:45:45.736Z,2.53
2018-12-12T19:48:14.545Z,2.20
2018-12-12T19:50:42.981Z,2.50
2018-12-12T19:53:11.531Z,2.37
2018-12-12T19:58:43.865Z,2.60
2018-12-12T20:01:12.307Z,2.40
2018-12-12T20:03:40.723Z,2.60
2018-12-12T20:06:09.232Z,3.13
2018-12-12T20:08:38.036Z,2.60
2018-12-12T20:14:09.313Z,2.17
2018-12-12T20:16:38.305Z,2.37
2018-12-12T20:19:06.815Z,2.90
2018-12-12T20:21:35.380Z,2.23
2018-12-12T20:24:03.912Z,2.80
2018-12-12T20:26:33.161Z,2.37
2018-12-12T20:29:01.615Z,2.90
2018-12-12T20:31:30.088Z,3.00
2018-12-12T20:33:58.680Z,3.07
2018-12-12T20:36:27.367Z,3.17
2018-12-12T20:38:55.857Z,2.47
2018-12-12T20:41:25.381Z,2.50
2018-12-12T20:43:54.098Z,2.37
2018-12-12T20:46:22.785Z,2.50
2018-12-12T20:48:51.521Z,2.80
2018-12-12T20:51:20.220Z,2.60
2018-12-12T20:53:48.664Z,2.20
2018-12-12T20:56:17.164Z,2.60
2018-12-12T20:58:45.676Z,2.17
2018-12-12T21:01:14.134Z,2.10
2018-12-12T21:03:42.510Z,2.10
2018-12-12T21:06:11.114Z,2.50
2018-12-12T21:08:39.701Z,2.10
2018-12-12T21:11:08.142Z,2.30
2018-12-12T21:13:36.720Z,2.00
2018-12-12T21:16:05.309Z,1.73
2018-12-12T21:18:33.707Z,1.90
2018-12-12T21:21:02.169Z,1.70
2018-12-12T21:23:30.604Z,2.10
2018-12-12T21:25:59.420Z,1.77
2018-12-12T21:28:27.905Z,1.40
2018-12-12T21:30:56.322Z,1.80
2018-12-12T21:33:24.775Z,2.10
2018-12-12T21:35:53.204Z,3.23
2018-12-12T21:38:21.772Z,2.67
2018-12-12T21:40:50.216Z,1.63
2018-12-12T21:43:18.686Z,1.53
2018-12-12T21:45:47.261Z,2.27
2018-12-12T21:48:15.626Z,1.40
2018-12-12T21:50:44.077Z,1.80
2018-12-12T21:53:12.537Z,1.60
2018-12-12T21:55:41.020Z,1.87
2018-12-12T21:58:09.456Z,1.70
2018-12-12T22:00:37.861Z,1.70
2018-12-12T22:03:06.294Z,1.77
2018-12-12T22:05:34.700Z,1.60
2018-12-12T22:08:03.072Z,1.87
2018-12-12T22:10:31.466Z,2.03
2018-12-12T22:12:59.899Z,1.70
2018-12-12T22:15:28.350Z,1.93
2018-12-12T22:17:56.861Z,1.50
2018-12-12T22:20:25.409Z,2.47
2018-12-12T22:22:53.777Z,1.70
2018-12-12T22:25:22.310Z,1.53
2018-12-12T22:27:50.777Z,1.77
2018-12-12T22:30:25.519Z,1.87
2018-12-12T22:32:54.005Z,1.97
2018-12-12T22:35:22.548Z,2.13
2018-12-12T22:40:26.381Z,1.87
2018-12-12T22:42:54.773Z,1.80
2018-12-12T22:45:23.149Z,1.60
2018-12-12T22:47:52.394Z,2.50
2018-12-12T22:50:20.848Z,1.90
2018-12-12T22:52:49.301Z,2.00
2018-12-12T22:55:17.704Z,2.00
2018-12-12T22:57:46.137Z,1.87
2018-12-12T23:02:25.490Z,1.70
2018-12-12T23:04:53.904Z,1.77
2018-12-12T23:07:22.518Z,1.50
2018-12-12T23:09:50.969Z,1.60
2018-12-12T23:12:19.348Z,1.43
2018-12-12T23:14:47.729Z,1.50
2018-12-12T23:17:22.473Z,1.67
2018-12-12T23:19:51.064Z,1.40
2018-12-12T23:22:19.844Z,2.20
2018-12-12T23:24:48.353Z,1.47
2018-12-12T23:27:16.736Z,2.00
2018-12-12T23:29:45.125Z,1.60
2018-12-12T23:32:14.355Z,1.57
2018-12-12T23:34:42.765Z,2.07
2018-12-12T23:37:11.175Z,1.70
2018-12-12T23:39:40.021Z,1.50
2018-12-12T23:42:08.562Z,1.60
2018-12-12T23:44:37.111Z,1.37
2018-12-12T23:47:05.532Z,1.90
2018-12-12T23:49:34.023Z,1.47
2018-12-12T23:52:02.392Z,1.60
2018-12-12T23:54:31.103Z,1.70
2018-12-12T23:56:59.532Z,1.70
2018-12-12T23:59:27.994Z,1.60
